Time;durP1;ratioP1;P1;durP2;ratioP2;P2;SDS_P1;SDS_P2;PMS_P1;PMS_P2;Temp;Humidity;BMP_temperature;BMP_pressure;BME280_temperature;BME280_humidity;BME280_pressure;Samples;Min_cycle;Max_cycle;Signal;HPM_P1;HPM_P2
2021/11/10 00:01:25;;;;;;;;;89.33;69.33;;;;;;;;5052898;28;49827;-66
2021/11/10 00:03:50;;;;;;;;;87.67;67.33;;;;;;;;5034401;28;52162;-66
2021/11/10 00:06:15;;;;;;;;;89.00;69.67;;;;;;;;5052081;28;52737;-66
2021/11/10 00:08:40;;;;;;;;;87.33;68.33;;;;;;;;5052626;28;49647;-67
2021/11/10 00:11:05;;;;;;;;;87.67;69.00;;;;;;;;5052805;28;49643;-67
2021/11/10 00:13:30;;;;;;;;;86.67;68.00;;;;;;;;5033748;28;64156;-66
2021/11/10 00:15:56;;;;;;;;;84.33;64.67;;;;;;;;5034273;28;49877;-66
2021/11/10 00:18:21;;;;;;;;;84.67;65.67;;;;;;;;5052312;28;49727;-66
2021/11/10 00:20:46;;;;;;;;;80.33;65.00;;;;;;;;5052503;28;49553;-66
2021/11/10 00:23:12;;;;;;;;;78.67;60.00;;;;;;;;5033667;28;50835;-66
2021/11/10 00:25:37;;;;;;;;;76.67;61.33;;;;;;;;5034193;28;49690;-66
2021/11/10 00:28:02;;;;;;;;;76.33;61.00;;;;;;;;5017397;28;49667;-66
2021/11/10 00:30:29;;;;;;;;;77.00;62.33;;;;;;;;5034206;28;49725;-66
2021/11/10 00:32:54;;;;;;;;;81.00;59.00;;;;;;;;5052023;28;49790;-66
2021/11/10 00:35:20;;;;;;;;;72.00;56.67;;;;;;;;5051571;28;55556;-66
2021/11/10 00:37:45;;;;;;;;;72.33;59.33;;;;;;;;5051495;28;49614;-66
2021/11/10 00:40:10;;;;;;;;;79.33;62.00;;;;;;;;5052383;28;49960;-65
2021/11/10 00:42:36;;;;;;;;;68.33;55.67;;;;;;;;5051794;28;50129;-66
2021/11/10 00:45:01;;;;;;;;;76.00;61.33;;;;;;;;5033890;28;49805;-67
2021/11/10 00:47:26;;;;;;;;;80.33;64.33;;;;;;;;5051892;28;49794;-66
2021/11/10 00:49:51;;;;;;;;;80.67;65.00;;;;;;;;5051724;28;49738;-71
2021/11/10 00:52:17;;;;;;;;;82.00;63.67;;;;;;;;5051287;28;51520;-71
2021/11/10 00:54:42;;;;;;;;;73.33;56.33;;;;;;;;5051519;28;53322;-71
2021/11/10 00:57:07;;;;;;;;;88.00;69.33;;;;;;;;5051395;28;64040;-67
2021/11/10 00:59:32;;;;;;;;;85.67;67.67;;;;;;;;5051931;28;49992;-69
2021/11/10 01:01:57;;;;;;;;;89.00;67.67;;;;;;;;5051205;28;64808;-66
2021/11/10 01:04:22;;;;;;;;;84.00;68.00;;;;;;;;5051172;28;54124;-72
2021/11/10 01:06:48;;;;;;;;;80.33;62.33;;;;;;;;5050968;28;64086;-71
2021/11/10 01:09:17;;;;;;;;;81.67;65.67;;;;;;;;5051660;28;49802;-69
2021/11/10 01:11:43;;;;;;;;;83.67;63.00;;;;;;;;5033875;28;50898;-72
2021/11/10 01:14:11;;;;;;;;;81.33;65.00;;;;;;;;5051510;28;49970;-72
2021/11/10 01:16:36;;;;;;;;;84.00;66.33;;;;;;;;5051436;28;49635;-68
2021/11/10 01:19:01;;;;;;;;;88.67;65.33;;;;;;;;5033418;28;50047;-71
2021/11/10 01:21:27;;;;;;;;;80.33;64.67;;;;;;;;5032728;28;59078;-68
2021/11/10 01:23:52;;;;;;;;;86.67;67.33;;;;;;;;5050958;28;49761;-69
2021/11/10 01:26:17;;;;;;;;;75.67;62.67;;;;;;;;5051531;28;49852;-69
2021/11/10 01:28:42;;;;;;;;;88.33;68.00;;;;;;;;5051457;28;49825;-73
2021/11/10 01:31:08;;;;;;;;;86.33;67.33;;;;;;;;5051120;28;50829;-66
2021/11/10 01:33:33;;;;;;;;;79.67;61.00;;;;;;;;5032560;28;49867;-66
2021/11/10 01:35:59;;;;;;;;;86.00;65.33;;;;;;;;5033056;28;49747;-67
2021/11/10 01:38:24;;;;;;;;;85.67;66.67;;;;;;;;5051364;28;49711;-67
2021/11/10 01:40:49;;;;;;;;;84.67;65.00;;;;;;;;5032720;28;51494;-68
2021/11/10 01:43:17;;;;;;;;;79.33;62.33;;;;;;;;5051034;28;49616;-66
2021/11/10 01:45:42;;;;;;;;;81.33;62.67;;;;;;;;5051279;28;49896;-66
2021/11/10 01:48:08;;;;;;;;;78.00;63.00;;;;;;;;5051004;28;49908;-66
2021/11/10 01:50:33;;;;;;;;;82.33;65.33;;;;;;;;5032378;28;60984;-66
2021/11/10 01:52:58;;;;;;;;;82.33;65.67;;;;;;;;5050816;28;49720;-66
2021/11/10 01:55:23;;;;;;;;;88.00;65.33;;;;;;;;5050344;28;57695;-66
2021/11/10 01:57:48;;;;;;;;;84.00;65.67;;;;;;;;5051153;28;49687;-66
2021/11/10 02:00:15;;;;;;;;;83.67;65.67;;;;;;;;5032516;28;51152;-66
2021/11/10 02:02:41;;;;;;;;;88.33;68.00;;;;;;;;5050747;28;49645;-66
2021/11/10 02:05:10;;;;;;;;;84.00;66.00;;;;;;;;5050648;28;49842;-66
2021/11/10 02:07:35;;;;;;;;;78.00;60.33;;;;;;;;5032696;28;50223;-66
2021/11/10 02:10:00;;;;;;;;;79.33;62.00;;;;;;;;5032597;28;50476;-67
2021/11/10 02:12:26;;;;;;;;;86.33;66.33;;;;;;;;5050596;28;49499;-68
2021/11/10 02:14:51;;;;;;;;;82.67;64.67;;;;;;;;5032735;28;49946;-66
2021/11/10 02:17:17;;;;;;;;;79.33;65.33;;;;;;;;5032099;28;55785;-66
2021/11/10 02:19:42;;;;;;;;;73.33;60.67;;;;;;;;5032392;28;49784;-67
2021/11/10 02:22:08;;;;;;;;;81.00;65.00;;;;;;;;5050221;28;49748;-67
2021/11/10 02:24:33;;;;;;;;;80.00;65.00;;;;;;;;5050426;28;49991;-67
2021/11/10 02:26:59;;;;;;;;;86.33;68.00;;;;;;;;5032871;28;50124;-66
2021/11/10 02:29:27;;;;;;;;;81.00;64.67;;;;;;;;5050220;28;50593;-66
2021/11/10 02:31:54;;;;;;;;;89.33;64.00;;;;;;;;5032346;28;50616;-66
2021/11/10 02:34:19;;;;;;;;;77.67;63.33;;;;;;;;5032533;28;49745;-67
2021/11/10 02:36:44;;;;;;;;;77.00;61.33;;;;;;;;5032331;28;49842;-66
2021/11/10 02:39:28;;;;;;;;;78.67;62.33;;;;;;;;5032113;28;50254;-66
2021/11/10 02:41:54;;;;;;;;;80.00;63.67;;;;;;;;5032345;28;49802;-66
2021/11/10 02:44:19;;;;;;;;;77.00;60.67;;;;;;;;5032237;28;49875;-66
2021/11/10 02:46:45;;;;;;;;;73.33;56.67;;;;;;;;5054087;28;49569;-65
2021/11/10 02:49:10;;;;;;;;;77.00;61.67;;;;;;;;5035703;28;50581;-66
2021/11/10 02:51:36;;;;;;;;;75.00;60.33;;;;;;;;5053451;28;49718;-67
2021/11/10 02:54:01;;;;;;;;;75.67;59.33;;;;;;;;5053677;28;49717;-66
2021/11/10 02:56:26;;;;;;;;;81.67;63.33;;;;;;;;5053827;28;49735;-66
2021/11/10 02:58:51;;;;;;;;;80.67;60.67;;;;;;;;5052722;28;65849;-66
2021/11/10 03:01:16;;;;;;;;;80.00;62.33;;;;;;;;5035556;28;49676;-67
2021/11/10 03:03:41;;;;;;;;;78.67;62.00;;;;;;;;5053474;28;49872;-71
2021/11/10 03:06:07;;;;;;;;;83.33;65.67;;;;;;;;5053255;28;49771;-66
2021/11/10 03:08:32;;;;;;;;;81.33;63.00;;;;;;;;5018498;28;51423;-70
2021/11/10 03:10:57;;;;;;;;;76.33;62.00;;;;;;;;5053520;28;49784;-67
2021/11/10 03:13:22;;;;;;;;;75.00;62.00;;;;;;;;5053299;28;49808;-71
2021/11/10 03:15:48;;;;;;;;;73.67;57.33;;;;;;;;5053509;28;49797;-66
2021/11/10 03:18:13;;;;;;;;;65.33;53.67;;;;;;;;5053193;28;51025;-72
2021/11/10 03:20:38;;;;;;;;;75.67;59.00;;;;;;;;5035445;28;50152;-70
2021/11/10 03:23:04;;;;;;;;;74.33;58.33;;;;;;;;5052704;28;49657;-67
2021/11/10 03:25:29;;;;;;;;;81.33;59.33;;;;;;;;5053559;28;49918;-68
2021/11/10 03:27:54;;;;;;;;;89.00;64.00;;;;;;;;5053050;28;50011;-67
2021/11/10 03:30:20;;;;;;;;;73.33;59.67;;;;;;;;5053020;28;49737;-71
2021/11/10 03:32:49;;;;;;;;;79.00;59.67;;;;;;;;5053281;28;49794;-69
2021/11/10 03:35:14;;;;;;;;;80.00;60.67;;;;;;;;5035253;28;50004;-67
2021/11/10 03:37:39;;;;;;;;;78.00;62.67;;;;;;;;5034776;28;49696;-66
2021/11/10 03:40:05;;;;;;;;;73.67;58.00;;;;;;;;5034821;28;49756;-66
2021/11/10 03:42:30;;;;;;;;;79.00;62.00;;;;;;;;5034814;28;49716;-66
2021/11/10 03:44:55;;;;;;;;;79.33;58.33;;;;;;;;5053018;28;49597;-66
2021/11/10 03:47:20;;;;;;;;;66.00;54.75;;;;;;;;5052673;28;50736;-66
2021/11/10 03:49:46;;;;;;;;;71.00;56.00;;;;;;;;5052358;28;54956;-65
2021/11/10 03:52:14;;;;;;;;;76.67;61.00;;;;;;;;5034441;28;49819;-65
2021/11/10 03:54:40;;;;;;;;;66.67;57.00;;;;;;;;5052689;28;49535;-66
2021/11/10 03:57:05;;;;;;;;;76.67;61.00;;;;;;;;5051934;28;50399;-66
2021/11/10 03:59:30;;;;;;;;;77.00;61.67;;;;;;;;5052563;28;49725;-66
2021/11/10 04:01:55;;;;;;;;;73.00;60.33;;;;;;;;5034617;28;50003;-66
2021/11/10 04:04:20;;;;;;;;;74.33;60.33;;;;;;;;5052656;28;49953;-66
2021/11/10 04:06:46;;;;;;;;;73.67;58.00;;;;;;;;5051591;28;63325;-66
2021/11/10 04:09:12;;;;;;;;;76.67;60.67;;;;;;;;5034324;28;49749;-66
2021/11/10 04:11:37;;;;;;;;;77.33;59.67;;;;;;;;5052512;28;49752;-66
2021/11/10 04:14:03;;;;;;;;;73.67;57.33;;;;;;;;5052650;28;49664;-66
2021/11/10 04:16:28;;;;;;;;;70.67;57.67;;;;;;;;5052304;28;49849;-66
2021/11/10 04:18:54;;;;;;;;;70.25;57.50;;;;;;;;5052232;28;49621;-66
2021/11/10 04:21:19;;;;;;;;;71.50;57.75;;;;;;;;5033846;28;49963;-66
2021/11/10 04:23:45;;;;;;;;;72.50;58.00;;;;;;;;5034168;28;49735;-66
2021/11/10 04:26:10;;;;;;;;;68.75;57.25;;;;;;;;5033158;28;49803;-65
2021/11/10 04:28:35;;;;;;;;;72.00;58.00;;;;;;;;5052284;28;50019;-66
2021/11/10 04:31:00;;;;;;;;;66.25;54.50;;;;;;;;5034150;28;50047;-67
2021/11/10 04:33:25;;;;;;;;;69.00;58.00;;;;;;;;5034119;28;49677;-66
2021/11/10 04:35:51;;;;;;;;;68.50;55.75;;;;;;;;5051742;28;49744;-66
2021/11/10 04:38:16;;;;;;;;;72.00;57.00;;;;;;;;5051717;28;53124;-66
2021/11/10 04:40:42;;;;;;;;;68.50;54.50;;;;;;;;5033969;28;49679;-66
2021/11/10 04:43:07;;;;;;;;;73.50;57.75;;;;;;;;5051892;28;49747;-66
2021/11/10 04:45:34;;;;;;;;;72.25;54.75;;;;;;;;5051714;28;50364;-66
2021/11/10 04:47:59;;;;;;;;;65.25;53.00;;;;;;;;5051740;28;49577;-66
2021/11/10 04:50:24;;;;;;;;;72.50;54.25;;;;;;;;5051951;28;49755;-66
2021/11/10 04:52:50;;;;;;;;;65.25;53.75;;;;;;;;5033906;28;50031;-65
2021/11/10 04:55:15;;;;;;;;;74.00;57.50;;;;;;;;5033426;28;49881;-65
2021/11/10 04:57:41;;;;;;;;;75.00;58.00;;;;;;;;5051579;28;49784;-65
2021/11/10 05:00:06;;;;;;;;;69.50;54.50;;;;;;;;5033207;28;54988;-66
2021/11/10 05:02:32;;;;;;;;;66.25;53.75;;;;;;;;5051870;28;49698;-65
2021/11/10 05:04:57;;;;;;;;;72.25;55.00;;;;;;;;5051333;28;50215;-65
2021/11/10 05:07:22;;;;;;;;;65.50;55.50;;;;;;;;5050342;28;49776;-65
2021/11/10 05:09:48;;;;;;;;;70.00;57.00;;;;;;;;5033635;28;49828;-65
2021/11/10 05:12:13;;;;;;;;;68.75;54.25;;;;;;;;5033687;28;50189;-65
2021/11/10 05:14:38;;;;;;;;;70.75;56.50;;;;;;;;5051377;28;49758;-65
2021/11/10 05:17:04;;;;;;;;;69.50;56.00;;;;;;;;5051184;28;50308;-65
2021/11/10 05:19:29;;;;;;;;;73.50;55.25;;;;;;;;5051489;28;49752;-66
2021/11/10 05:21:54;;;;;;;;;61.50;50.75;;;;;;;;5033255;28;49932;-65
2021/11/10 05:24:22;;;;;;;;;65.75;52.75;;;;;;;;5050704;28;51173;-66
2021/11/10 05:26:47;;;;;;;;;59.75;47.00;;;;;;;;5051196;28;49802;-65
2021/11/10 05:29:12;;;;;;;;;62.33;49.00;;;;;;;;5033292;28;49736;-65
2021/11/10 05:31:38;;;;;;;;;71.33;56.67;;;;;;;;5051499;28;49783;-66
2021/11/10 05:34:05;;;;;;;;;71.75;58.50;;;;;;;;5050961;28;50143;-66
2021/11/10 05:36:31;;;;;;;;;75.00;58.75;;;;;;;;5050768;28;49856;-66
2021/11/10 05:38:56;;;;;;;;;68.75;56.75;;;;;;;;5033090;28;49891;-66
2021/11/10 05:41:21;;;;;;;;;72.00;58.33;;;;;;;;5051277;28;49976;-65
2021/11/10 05:43:46;;;;;;;;;70.75;58.25;;;;;;;;5032208;28;63262;-65
2021/11/10 05:46:11;;;;;;;;;71.67;55.00;;;;;;;;5032665;28;58389;-65
2021/11/10 05:48:37;;;;;;;;;67.33;57.00;;;;;;;;5032830;28;49686;-66
2021/11/10 05:51:02;;;;;;;;;74.33;59.00;;;;;;;;5050838;28;49649;-67
2021/11/10 05:53:29;;;;;;;;;75.00;59.33;;;;;;;;5050597;28;49855;-66
2021/11/10 05:55:55;;;;;;;;;71.50;59.00;;;;;;;;5032575;28;49798;-67
2021/11/10 05:58:21;;;;;;;;;72.25;57.25;;;;;;;;5050721;28;49768;-66
2021/11/10 06:00:46;;;;;;;;;73.33;57.33;;;;;;;;5050801;28;49672;-66
2021/11/10 06:03:11;;;;;;;;;69.50;57.75;;;;;;;;5050395;28;49887;-65
2021/11/10 06:05:36;;;;;;;;;76.00;61.33;;;;;;;;5050568;28;49562;-65
2021/11/10 06:08:02;;;;;;;;;76.00;57.25;;;;;;;;5050383;28;53489;-65
2021/11/10 06:10:27;;;;;;;;;71.33;55.00;;;;;;;;5032689;28;49803;-66
2021/11/10 06:12:52;;;;;;;;;76.33;61.00;;;;;;;;5050305;28;50729;-66
2021/11/10 06:15:18;;;;;;;;;71.75;57.50;;;;;;;;5032261;28;49850;-67
2021/11/10 06:17:43;;;;;;;;;69.75;56.75;;;;;;;;5050559;28;49801;-66
2021/11/10 06:20:09;;;;;;;;;66.00;55.75;;;;;;;;5050539;28;50068;-66
2021/11/10 06:22:34;;;;;;;;;77.00;61.00;;;;;;;;5049521;28;50409;-65
2021/11/10 06:24:59;;;;;;;;;70.25;55.00;;;;;;;;5050217;28;49655;-66
2021/11/10 06:27:25;;;;;;;;;68.00;55.25;;;;;;;;5050321;28;49749;-66
2021/11/10 06:29:50;;;;;;;;;67.25;56.50;;;;;;;;5050570;28;49824;-67
2021/11/10 06:32:15;;;;;;;;;74.33;59.33;;;;;;;;5050061;28;53599;-65
2021/11/10 06:34:40;;;;;;;;;75.67;59.67;;;;;;;;5050545;28;50055;-69
2021/11/10 06:37:06;;;;;;;;;74.00;59.25;;;;;;;;5051202;28;49727;-71
2021/11/10 06:39:31;;;;;;;;;65.25;54.75;;;;;;;;5016765;28;50007;-70
2021/11/10 06:41:56;;;;;;;;;65.75;54.25;;;;;;;;5050114;28;49627;-70
2021/11/10 06:44:22;;;;;;;;;76.00;58.67;;;;;;;;5049771;28;53248;-67
2021/11/10 06:46:47;;;;;;;;;70.00;58.67;;;;;;;;5050117;28;49745;-70
2021/11/10 06:49:12;;;;;;;;;70.00;58.75;;;;;;;;5050234;28;49754;-63
2021/11/10 06:51:38;;;;;;;;;70.75;53.75;;;;;;;;5049730;28;50994;-66
2021/11/10 06:54:03;;;;;;;;;70.00;54.75;;;;;;;;5049846;28;49742;-65
2021/11/10 06:56:29;;;;;;;;;72.00;57.00;;;;;;;;5050035;28;49856;-67
2021/11/10 06:58:54;;;;;;;;;76.00;59.33;;;;;;;;5050436;28;49984;-64
2021/11/10 07:01:19;;;;;;;;;79.33;62.00;;;;;;;;5049938;28;49925;-69
2021/11/10 07:03:45;;;;;;;;;75.00;59.25;;;;;;;;5040130;27;49884;-63
2021/11/10 07:06:10;;;;;;;;;70.50;55.75;;;;;;;;5069032;27;49742;-63
2021/11/10 07:08:35;;;;;;;;;69.25;57.50;;;;;;;;5069610;28;50017;-64
2021/11/10 07:11:00;;;;;;;;;70.50;58.00;;;;;;;;5069964;28;49809;-64
2021/11/10 07:13:26;;;;;;;;;71.00;58.33;;;;;;;;5070035;28;49828;-63
2021/11/10 07:15:51;;;;;;;;;70.75;55.00;;;;;;;;5069873;28;50296;-63
2021/11/10 07:18:17;;;;;;;;;74.25;57.50;;;;;;;;5069953;28;49822;-63
2021/11/10 07:20:42;;;;;;;;;70.00;56.33;;;;;;;;5051273;28;49941;-63
2021/11/10 07:23:07;;;;;;;;;68.50;57.00;;;;;;;;5050724;28;60859;-62
2021/11/10 07:25:32;;;;;;;;;75.00;59.00;;;;;;;;5051451;28;50022;-61
2021/11/10 07:27:58;;;;;;;;;73.75;57.75;;;;;;;;5070115;28;49783;-60
2021/11/10 07:30:23;;;;;;;;;79.25;60.00;;;;;;;;5051746;28;50472;-62
2021/11/10 07:32:48;;;;;;;;;65.75;55.00;;;;;;;;5073318;27;49647;-61
2021/11/10 07:35:13;;;;;;;;;76.25;61.50;;;;;;;;5073272;28;49746;-62
2021/11/10 07:37:39;;;;;;;;;75.33;59.67;;;;;;;;5073125;27;49616;-61
2021/11/10 07:40:05;;;;;;;;;73.67;59.00;;;;;;;;5072952;28;50555;-60
2021/11/10 07:42:31;;;;;;;;;75.33;60.33;;;;;;;;5072970;28;49820;-60
2021/11/10 07:45:05;;;;;;;;;82.33;63.33;;;;;;;;5073111;28;49693;-60
2021/11/10 07:47:38;;;;;;;;;87.00;65.33;;;;;;;;5054821;28;50097;-60
2021/11/10 07:50:04;;;;;;;;;83.67;66.67;;;;;;;;5072780;28;50870;-60
2021/11/10 07:52:29;;;;;;;;;81.33;65.33;;;;;;;;5071918;28;49819;-61
2021/11/10 07:54:54;;;;;;;;;72.00;58.67;;;;;;;;5072893;27;51573;-61
2021/11/10 07:57:20;;;;;;;;;77.33;63.00;;;;;;;;5072939;28;49817;-62
2021/11/10 07:59:46;;;;;;;;;76.00;61.33;;;;;;;;5072672;28;50439;-62
2021/11/10 08:02:11;;;;;;;;;77.00;60.00;;;;;;;;5072819;28;49792;-62
2021/11/10 08:04:36;;;;;;;;;75.67;59.00;;;;;;;;5072255;27;49800;-62
2021/11/10 08:07:01;;;;;;;;;82.33;63.33;;;;;;;;5072688;27;50007;-63
2021/11/10 08:09:27;;;;;;;;;78.00;62.33;;;;;;;;5072695;27;50690;-62
2021/11/10 08:11:52;;;;;;;;;85.67;67.67;;;;;;;;5054756;28;49744;-60
2021/11/10 08:14:19;;;;;;;;;90.33;69.67;;;;;;;;5072456;27;50861;-62
2021/11/10 08:16:44;;;;;;;;;96.67;74.33;;;;;;;;5072694;28;50011;-62
2021/11/10 08:19:09;;;;;;;;;103.33;91.00;;;;;;;;5072476;28;50284;-62
2021/11/10 08:21:35;;;;;;;;;99.67;85.33;;;;;;;;5072448;27;49845;-61
2021/11/10 08:24:02;;;;;;;;;101.00;85.33;;;;;;;;5054000;28;49637;-62
2021/11/10 08:26:27;;;;;;;;;91.67;72.33;;;;;;;;5072816;28;49613;-62
2021/11/10 08:28:53;;;;;;;;;95.33;79.67;;;;;;;;5072559;28;50338;-63
2021/11/10 08:31:18;;;;;;;;;96.67;83.00;;;;;;;;5072477;28;49744;-63
2021/11/10 08:33:43;;;;;;;;;95.33;76.67;;;;;;;;5072590;27;49913;-63
2021/11/10 08:36:08;;;;;;;;;91.00;70.67;;;;;;;;5053654;28;51304;-64
2021/11/10 08:38:33;;;;;;;;;94.00;76.33;;;;;;;;5067133;27;49885;-61
2021/11/10 08:40:59;;;;;;;;;87.00;68.33;;;;;;;;5071962;28;49732;-64
2021/11/10 08:43:24;;;;;;;;;88.33;68.67;;;;;;;;5073826;28;49607;-65
2021/11/10 08:45:50;;;;;;;;;84.67;68.67;;;;;;;;5074998;28;49660;-67
2021/11/10 08:48:16;;;;;;;;;92.67;69.67;;;;;;;;5055398;28;52078;-67
2021/11/10 08:50:42;;;;;;;;;89.33;73.33;;;;;;;;5079250;28;49836;-68
2021/11/10 08:53:08;;;;;;;;;95.67;81.33;;;;;;;;5074358;28;49637;-66
2021/11/10 08:55:33;;;;;;;;;93.33;74.00;;;;;;;;5064070;28;49716;-67
2021/11/10 08:57:59;;;;;;;;;87.33;70.33;;;;;;;;5081226;28;50422;-66
2021/11/10 09:00:25;;;;;;;;;89.33;71.67;;;;;;;;5064635;28;49557;-70
2021/11/10 09:02:50;;;;;;;;;89.33;68.67;;;;;;;;5059396;28;49649;-66
2021/11/10 09:05:15;;;;;;;;;87.33;70.67;;;;;;;;5075361;28;49704;-68
2021/11/10 09:07:41;;;;;;;;;87.67;68.00;;;;;;;;5045598;28;52126;-64
2021/11/10 09:10:07;;;;;;;;;88.67;69.33;;;;;;;;5077613;28;49687;-64
2021/11/10 09:12:32;;;;;;;;;87.00;67.00;;;;;;;;5079845;28;49754;-67
2021/11/10 09:14:58;;;;;;;;;94.00;75.33;;;;;;;;5085522;28;49482;-66
2021/11/10 09:17:23;;;;;;;;;92.67;72.00;;;;;;;;5064039;28;50833;-65
2021/11/10 09:19:48;;;;;;;;;93.67;77.00;;;;;;;;5080612;28;61790;-67
2021/11/10 09:22:13;;;;;;;;;89.33;72.67;;;;;;;;5064751;28;49581;-67
2021/11/10 09:24:39;;;;;;;;;93.00;75.33;;;;;;;;5066576;28;50205;-67
2021/11/10 09:27:04;;;;;;;;;92.33;73.00;;;;;;;;5058888;28;49776;-66
2021/11/10 09:29:29;;;;;;;;;84.67;67.33;;;;;;;;5081826;28;49645;-67
2021/11/10 09:31:55;;;;;;;;;88.67;68.33;;;;;;;;5079467;28;50158;-66
2021/11/10 09:34:20;;;;;;;;;90.67;70.33;;;;;;;;5081969;28;49530;-66
2021/11/10 09:36:48;;;;;;;;;90.33;68.33;;;;;;;;5082034;28;49908;-66
2021/11/10 09:39:17;;;;;;;;;90.67;69.33;;;;;;;;5063304;28;49468;-67
2021/11/10 09:41:45;;;;;;;;;94.33;78.33;;;;;;;;5083583;28;49410;-67
2021/11/10 09:44:10;;;;;;;;;86.67;68.33;;;;;;;;5081334;28;49750;-65
2021/11/10 09:46:36;;;;;;;;;99.00;87.67;;;;;;;;5062001;28;50703;-66
2021/11/10 09:49:01;;;;;;;;;94.33;81.00;;;;;;;;5042663;28;49362;-66
2021/11/10 09:51:27;;;;;;;;;97.67;84.00;;;;;;;;5083445;28;49923;-66
2021/11/10 09:53:52;;;;;;;;;90.67;73.33;;;;;;;;5054158;28;49869;-64
2021/11/10 09:56:19;;;;;;;;;85.67;67.00;;;;;;;;5063843;28;50581;-66
2021/11/10 09:58:47;;;;;;;;;82.67;66.00;;;;;;;;5074647;28;49658;-64
2021/11/10 10:01:12;;;;;;;;;86.67;65.67;;;;;;;;5078537;28;49547;-61
2021/11/10 10:03:38;;;;;;;;;79.67;63.33;;;;;;;;5081464;28;49748;-62
2021/11/10 10:06:03;;;;;;;;;72.00;57.67;;;;;;;;5060917;28;49898;-62
2021/11/10 10:08:28;;;;;;;;;80.25;61.75;;;;;;;;5073000;28;49909;-63
2021/11/10 10:10:54;;;;;;;;;71.75;56.00;;;;;;;;5082100;28;49519;-64
2021/11/10 10:13:19;;;;;;;;;65.75;54.50;;;;;;;;5077466;28;49660;-63
2021/11/10 10:15:45;;;;;;;;;58.75;47.00;;;;;;;;5056375;28;50486;-63
2021/11/10 10:18:14;;;;;;;;;62.50;50.25;;;;;;;;5054348;28;49820;-63
2021/11/10 10:20:41;;;;;;;;;66.50;54.00;;;;;;;;5070693;28;49824;-63
2021/11/10 10:23:16;;;;;;;;;71.50;57.00;;;;;;;;5053909;28;50064;-63
2021/11/10 10:25:41;;;;;;;;;76.75;59.50;;;;;;;;5070489;28;52889;-63
2021/11/10 10:28:06;;;;;;;;;69.75;55.50;;;;;;;;5070746;28;49613;-63
2021/11/10 10:30:36;;;;;;;;;75.33;60.00;;;;;;;;5053288;28;49723;-63
2021/11/10 10:33:01;;;;;;;;;74.25;59.75;;;;;;;;5052750;28;50010;-63
2021/11/10 10:35:26;;;;;;;;;77.00;59.25;;;;;;;;5069758;27;50505;-63
2021/11/10 10:37:51;;;;;;;;;71.50;57.25;;;;;;;;5072509;27;49687;-63
2021/11/10 10:40:17;;;;;;;;;66.25;54.25;;;;;;;;5072010;27;50119;-64
2021/11/10 10:42:42;;;;;;;;;67.00;55.00;;;;;;;;5072414;28;49699;-61
2021/11/10 10:45:22;;;;;;;;;62.75;52.25;;;;;;;;5074147;28;50368;-63
2021/11/10 10:47:55;;;;;;;;;65.00;51.50;;;;;;;;5072497;28;49687;-63
2021/11/10 10:50:36;;;;;;;;;63.50;52.75;;;;;;;;5076380;27;49630;-64
2021/11/10 10:53:01;;;;;;;;;62.00;48.75;;;;;;;;5075718;28;49941;-65
2021/11/10 10:55:33;;;;;;;;;45.50;41.00;;;;;;;;5071093;28;49832;-65
2021/11/10 10:57:59;;;;;;;;;61.75;49.50;;;;;;;;5073191;28;49811;-63
2021/11/10 11:00:26;;;;;;;;;63.75;51.00;;;;;;;;5073782;28;49705;-61
2021/11/10 11:02:52;;;;;;;;;63.75;52.00;;;;;;;;5056911;28;49983;-61
2021/11/10 11:05:36;;;;;;;;;60.75;48.50;;;;;;;;5056653;28;54992;-61
2021/11/10 11:08:18;;;;;;;;;55.75;47.00;;;;;;;;5076174;28;49953;-72
2021/11/10 11:10:43;;;;;;;;;65.25;52.00;;;;;;;;5038505;28;49909;-74
2021/11/10 11:13:09;;;;;;;;;57.75;47.00;;;;;;;;5038969;28;49855;-73
2021/11/10 11:15:37;;;;;;;;;56.00;46.00;;;;;;;;5055428;28;52354;-72
2021/11/10 11:18:02;;;;;;;;;55.75;44.00;;;;;;;;5055991;28;49747;-73
2021/11/10 11:20:28;;;;;;;;;58.00;48.25;;;;;;;;5037899;28;55937;-72
2021/11/10 11:22:54;;;;;;;;;56.00;45.75;;;;;;;;5055454;28;49933;-72
2021/11/10 11:25:20;;;;;;;;;58.00;47.50;;;;;;;;5038093;28;51565;-73
2021/11/10 11:27:52;;;;;;;;;54.75;46.25;;;;;;;;5055500;28;49755;-72
2021/11/10 11:30:17;;;;;;;;;56.00;43.50;;;;;;;;5038614;28;49733;-64
2021/11/10 11:32:43;;;;;;;;;57.75;48.50;;;;;;;;5075107;27;50143;-68
2021/11/10 11:35:25;;;;;;;;;52.00;43.25;;;;;;;;5109528;27;49789;-70
2021/11/10 11:37:51;;;;;;;;;57.75;46.25;;;;;;;;5073490;28;49627;-64
2021/11/10 11:40:16;;;;;;;;;47.25;40.25;;;;;;;;5073512;28;49633;-69
2021/11/10 11:42:42;;;;;;;;;63.50;50.00;;;;;;;;5055522;28;49931;-64
2021/11/10 11:45:08;;;;;;;;;61.00;48.00;;;;;;;;5073473;28;49678;-62
2021/11/10 11:47:33;;;;;;;;;60.00;46.75;;;;;;;;5073041;27;49813;-61
2021/11/10 11:50:04;;;;;;;;;55.00;45.75;;;;;;;;5073515;28;50151;-65
2021/11/10 11:52:31;;;;;;;;;67.75;53.25;;;;;;;;5073524;28;49685;-65
2021/11/10 11:54:57;;;;;;;;;72.75;58.00;;;;;;;;5072683;28;50446;-65
2021/11/10 11:57:22;;;;;;;;;67.75;54.75;;;;;;;;5072939;27;49892;-62
2021/11/10 11:59:51;;;;;;;;;50.75;41.75;;;;;;;;5054863;27;49869;-63
2021/11/10 12:02:23;;;;;;;;;46.75;40.00;;;;;;;;5073200;27;49806;-63
2021/11/10 12:04:48;;;;;;;;;55.50;42.75;;;;;;;;5055138;28;49818;-66
2021/11/10 12:07:33;;;;;;;;;82.33;65.00;;;;;;;;5072719;28;49651;-66
2021/11/10 12:10:17;;;;;;;;;56.50;46.75;;;;;;;;5072800;28;49862;-65
2021/11/10 12:12:45;;;;;;;;;56.00;45.25;;;;;;;;5072872;28;49636;-63
2021/11/10 12:15:11;;;;;;;;;57.25;42.50;;;;;;;;5072583;28;49961;-63
2021/11/10 12:17:38;;;;;;;;;60.50;50.00;;;;;;;;5072172;27;56244;-63
2021/11/10 12:20:05;;;;;;;;;53.50;44.00;;;;;;;;5054287;28;49978;-63
2021/11/10 12:22:34;;;;;;;;;59.25;45.00;;;;;;;;5054903;28;49936;-63
2021/11/10 12:25:00;;;;;;;;;58.00;46.00;;;;;;;;5072426;27;50007;-63
2021/11/10 12:27:32;;;;;;;;;50.50;41.50;;;;;;;;5072577;28;49698;-63
2021/11/10 12:30:00;;;;;;;;;49.00;42.75;;;;;;;;5072714;28;49738;-63
2021/11/10 12:32:45;;;;;;;;;55.75;47.75;;;;;;;;5072765;28;50061;-61
2021/11/10 12:35:19;;;;;;;;;39.50;35.25;;;;;;;;5071415;27;50840;-61
2021/11/10 12:37:48;;;;;;;;;43.50;37.75;;;;;;;;5072624;27;49809;-62
2021/11/10 12:40:14;;;;;;;;;40.00;37.50;;;;;;;;5054164;28;49788;-73
2021/11/10 12:42:47;;;;;;;;;55.75;47.25;;;;;;;;5054449;28;49885;-72
2021/11/10 12:45:15;;;;;;;;;51.00;41.00;;;;;;;;5072139;28;51738;-73
2021/11/10 12:47:45;;;;;;;;;38.75;37.00;;;;;;;;5071986;27;49903;-76
2021/11/10 12:50:55;;;;;;;;;39.00;33.00;;;;;;;;5072060;27;50043;-63
2021/11/10 12:53:42;;;;;;;;;58.00;47.25;;;;;;;;5012368;28;49842;-64
2021/11/10 12:56:08;;;;;;;;;59.50;44.50;;;;;;;;5036762;27;52318;-73
2021/11/10 12:58:33;;;;;;;;;58.50;45.75;;;;;;;;5053466;28;49714;-72
2021/11/10 13:01:03;;;;;;;;;61.25;48.25;;;;;;;;5054149;28;49762;-63
2021/11/10 13:03:29;;;;;;;;;58.25;47.25;;;;;;;;5036709;28;49582;-65
2021/11/10 13:06:22;;;;;;;;;59.25;49.00;;;;;;;;5049907;27;50464;-71
2021/11/10 13:08:52;;;;;;;;;58.50;47.00;;;;;;;;5023028;28;49773;-79
2021/11/10 13:11:18;;;;;;;;;54.25;44.00;;;;;;;;5037467;28;49885;-86
2021/11/10 13:13:43;;;;;;;;;54.50;45.00;;;;;;;;5019934;28;50092;-72
2021/11/10 13:16:08;;;;;;;;;50.25;41.75;;;;;;;;5060244;28;50593;-71
2021/11/10 13:18:34;;;;;;;;;51.25;41.00;;;;;;;;5053445;28;49915;-69
2021/11/10 13:21:00;;;;;;;;;57.25;40.75;;;;;;;;5055944;28;49816;-67
2021/11/10 13:23:31;;;;;;;;;52.50;40.25;;;;;;;;5053344;28;50092;-64
2021/11/10 13:25:56;;;;;;;;;39.75;35.50;;;;;;;;5072090;28;50486;-65
2021/11/10 13:28:22;;;;;;;;;42.50;38.50;;;;;;;;5072017;28;49702;-67
2021/11/10 13:30:52;;;;;;;;;48.00;37.50;;;;;;;;5074882;28;49899;-67
2021/11/10 13:33:26;;;;;;;;;48.25;40.00;;;;;;;;5076106;28;49826;-67
2021/11/10 13:35:58;;;;;;;;;45.50;38.50;;;;;;;;5075251;28;49915;-66
2021/11/10 13:38:42;;;;;;;;;48.75;41.25;;;;;;;;5072960;28;49681;-67
2021/11/10 13:41:26;;;;;;;;;45.75;37.25;;;;;;;;5055630;28;49938;-69
2021/11/10 13:43:55;;;;;;;;;47.50;41.00;;;;;;;;5071386;28;49742;-66
2021/11/10 13:46:24;;;;;;;;;47.75;38.25;;;;;;;;5071177;28;50830;-65
2021/11/10 13:49:08;;;;;;;;;43.25;38.75;;;;;;;;5071354;28;49855;-66
2021/11/10 13:51:33;;;;;;;;;43.75;37.00;;;;;;;;5073946;28;49759;-65
2021/11/10 13:54:25;;;;;;;;;48.75;37.75;;;;;;;;5055584;28;49696;-65
2021/11/10 13:56:52;;;;;;;;;47.50;39.50;;;;;;;;5066819;28;50525;-65
2021/11/10 13:59:32;;;;;;;;;43.00;38.00;;;;;;;;5064409;27;49804;-65
2021/11/10 14:02:02;;;;;;;;;48.25;39.25;;;;;;;;5064061;27;49865;-61
2021/11/10 14:04:28;;;;;;;;;47.50;38.75;;;;;;;;5047650;28;49946;-63
2021/11/10 14:07:00;;;;;;;;;43.75;37.25;;;;;;;;5061320;28;50984;-62
2021/11/10 14:09:25;;;;;;;;;47.00;41.75;;;;;;;;5062961;28;49636;-63
2021/11/10 14:11:50;;;;;;;;;37.00;34.50;;;;;;;;5032818;28;55895;-61
2021/11/10 14:14:30;;;;;;;;;42.25;39.00;;;;;;;;5051668;28;49799;-60